sensor_id;sensor_type;location;lat;lon;timestamp;P1;durP1;ratioP1;P2;durP2;ratioP2
43919;SDS011;29578;51.946;5.874;2023-09-18T00:12:29;2.72;;;1.88;;
43919;SDS011;29578;51.946;5.874;2023-09-18T00:22:26;1.80;;;1.55;;
43919;SDS011;29578;51.946;5.874;2023-09-18T00:28:51;2.80;;;1.85;;
43919;SDS011;29578;51.946;5.874;2023-09-18T00:31:19;1.90;;;1.48;;
43919;SDS011;29578;51.946;5.874;2023-09-18T00:33:45;2.80;;;1.98;;
43919;SDS011;29578;51.946;5.874;2023-09-18T00:36:14;3.47;;;1.60;;
43919;SDS011;29578;51.946;5.874;2023-09-18T00:38:40;1.92;;;1.50;;
43919;SDS011;29578;51.946;5.874;2023-09-18T00:41:09;2.47;;;1.70;;
43919;SDS011;29578;51.946;5.874;2023-09-18T00:43:37;3.80;;;2.13;;
43919;SDS011;29578;51.946;5.874;2023-09-18T00:46:04;3.28;;;2.35;;
43919;SDS011;29578;51.946;5.874;2023-09-18T00:51:37;2.35;;;1.77;;
43919;SDS011;29578;51.946;5.874;2023-09-18T00:54:13;2.60;;;1.83;;
43919;SDS011;29578;51.946;5.874;2023-09-18T00:57:07;2.45;;;1.92;;
43919;SDS011;29578;51.946;5.874;2023-09-18T00:59:39;2.03;;;1.40;;
43919;SDS011;29578;51.946;5.874;2023-09-18T01:02:05;3.13;;;2.10;;
43919;SDS011;29578;51.946;5.874;2023-09-18T01:04:37;2.13;;;1.75;;
43919;SDS011;29578;51.946;5.874;2023-09-18T01:07:30;3.22;;;2.28;;
43919;SDS011;29578;51.946;5.874;2023-09-18T01:10:20;2.42;;;2.00;;
43919;SDS011;29578;51.946;5.874;2023-09-18T01:12:53;2.60;;;1.98;;
43919;SDS011;29578;51.946;5.874;2023-09-18T01:15:27;3.47;;;2.47;;
43919;SDS011;29578;51.946;5.874;2023-09-18T01:18:10;2.92;;;2.20;;
43919;SDS011;29578;51.946;5.874;2023-09-18T01:20:36;2.78;;;2.05;;
43919;SDS011;29578;51.946;5.874;2023-09-18T01:26:27;2.90;;;2.03;;
43919;SDS011;29578;51.946;5.874;2023-09-18T01:29:19;2.90;;;1.90;;
43919;SDS011;29578;51.946;5.874;2023-09-18T01:34:45;2.08;;;1.70;;
43919;SDS011;29578;51.946;5.874;2023-09-18T01:40:53;1.98;;;1.75;;
43919;SDS011;29578;51.946;5.874;2023-09-18T01:43:26;3.78;;;1.92;;
43919;SDS011;29578;51.946;5.874;2023-09-18T01:49:19;2.22;;;1.60;;
43919;SDS011;29578;51.946;5.874;2023-09-18T01:51:57;3.28;;;2.10;;
43919;SDS011;29578;51.946;5.874;2023-09-18T01:54:23;2.97;;;1.85;;
43919;SDS011;29578;51.946;5.874;2023-09-18T01:56:50;1.98;;;1.63;;
43919;SDS011;29578;51.946;5.874;2023-09-18T01:59:17;2.28;;;1.90;;
43919;SDS011;29578;51.946;5.874;2023-09-18T02:01:43;3.28;;;2.10;;
43919;SDS011;29578;51.946;5.874;2023-09-18T02:04:09;2.88;;;2.13;;
43919;SDS011;29578;51.946;5.874;2023-09-18T02:06:35;2.75;;;1.95;;
43919;SDS011;29578;51.946;5.874;2023-09-18T02:09:01;2.83;;;2.05;;
43919;SDS011;29578;51.946;5.874;2023-09-18T02:11:28;3.05;;;1.90;;
43919;SDS011;29578;51.946;5.874;2023-09-18T02:13:54;2.42;;;1.92;;
43919;SDS011;29578;51.946;5.874;2023-09-18T02:16:21;2.42;;;1.83;;
43919;SDS011;29578;51.946;5.874;2023-09-18T02:18:49;2.75;;;2.05;;
43919;SDS011;29578;51.946;5.874;2023-09-18T02:21:19;3.08;;;2.13;;
43919;SDS011;29578;51.946;5.874;2023-09-18T02:23:45;2.93;;;2.10;;
43919;SDS011;29578;51.946;5.874;2023-09-18T02:26:14;4.10;;;2.53;;
43919;SDS011;29578;51.946;5.874;2023-09-18T02:28:40;2.78;;;2.10;;
43919;SDS011;29578;51.946;5.874;2023-09-18T02:31:05;3.50;;;2.30;;
43919;SDS011;29578;51.946;5.874;2023-09-18T02:33:31;2.75;;;1.98;;
43919;SDS011;29578;51.946;5.874;2023-09-18T02:35:57;2.95;;;2.00;;
43919;SDS011;29578;51.946;5.874;2023-09-18T02:38:22;3.05;;;1.80;;
43919;SDS011;29578;51.946;5.874;2023-09-18T02:40:48;2.42;;;1.90;;
43919;SDS011;29578;51.946;5.874;2023-09-18T02:43:14;2.63;;;2.08;;
43919;SDS011;29578;51.946;5.874;2023-09-18T02:45:40;3.33;;;2.28;;
43919;SDS011;29578;51.946;5.874;2023-09-18T02:48:05;3.17;;;2.15;;
43919;SDS011;29578;51.946;5.874;2023-09-18T02:50:31;2.65;;;1.88;;
43919;SDS011;29578;51.946;5.874;2023-09-18T02:52:57;2.63;;;1.70;;
43919;SDS011;29578;51.946;5.874;2023-09-18T02:55:23;2.72;;;1.92;;
43919;SDS011;29578;51.946;5.874;2023-09-18T02:57:49;2.00;;;1.60;;
43919;SDS011;29578;51.946;5.874;2023-09-18T03:00:14;3.05;;;1.60;;
43919;SDS011;29578;51.946;5.874;2023-09-18T03:02:40;2.28;;;1.70;;
43919;SDS011;29578;51.946;5.874;2023-09-18T03:05:06;2.97;;;2.05;;
43919;SDS011;29578;51.946;5.874;2023-09-18T03:07:33;2.72;;;2.00;;
43919;SDS011;29578;51.946;5.874;2023-09-18T03:09:59;2.63;;;2.00;;
43919;SDS011;29578;51.946;5.874;2023-09-18T03:12:25;2.35;;;1.80;;
43919;SDS011;29578;51.946;5.874;2023-09-18T03:14:51;2.53;;;1.95;;
43919;SDS011;29578;51.946;5.874;2023-09-18T03:17:16;3.55;;;1.95;;
43919;SDS011;29578;51.946;5.874;2023-09-18T03:19:42;2.38;;;1.70;;
43919;SDS011;29578;51.946;5.874;2023-09-18T03:22:08;4.18;;;2.22;;
43919;SDS011;29578;51.946;5.874;2023-09-18T03:24:34;3.08;;;2.00;;
43919;SDS011;29578;51.946;5.874;2023-09-18T03:26:59;3.35;;;2.42;;
43919;SDS011;29578;51.946;5.874;2023-09-18T03:29:25;3.35;;;2.20;;
43919;SDS011;29578;51.946;5.874;2023-09-18T03:31:51;2.35;;;1.95;;
43919;SDS011;29578;51.946;5.874;2023-09-18T03:34:17;3.28;;;2.10;;
43919;SDS011;29578;51.946;5.874;2023-09-18T03:36:42;2.38;;;1.83;;
43919;SDS011;29578;51.946;5.874;2023-09-18T03:39:08;2.75;;;2.00;;
43919;SDS011;29578;51.946;5.874;2023-09-18T03:41:34;2.42;;;1.95;;
43919;SDS011;29578;51.946;5.874;2023-09-18T03:44:00;1.88;;;1.50;;
43919;SDS011;29578;51.946;5.874;2023-09-18T03:46:29;1.77;;;1.45;;
43919;SDS011;29578;51.946;5.874;2023-09-18T03:48:55;3.15;;;1.90;;
43919;SDS011;29578;51.946;5.874;2023-09-18T03:51:22;2.78;;;1.83;;
43919;SDS011;29578;51.946;5.874;2023-09-18T03:53:48;3.38;;;1.75;;
43919;SDS011;29578;51.946;5.874;2023-09-18T03:56:14;2.30;;;1.80;;
43919;SDS011;29578;51.946;5.874;2023-09-18T03:58:40;2.50;;;1.73;;
43919;SDS011;29578;51.946;5.874;2023-09-18T04:01:07;2.58;;;1.80;;
43919;SDS011;29578;51.946;5.874;2023-09-18T04:03:32;3.08;;;1.90;;
43919;SDS011;29578;51.946;5.874;2023-09-18T04:05:58;3.25;;;2.08;;
43919;SDS011;29578;51.946;5.874;2023-09-18T04:08:24;2.88;;;1.70;;
43919;SDS011;29578;51.946;5.874;2023-09-18T04:10:49;2.40;;;1.80;;
43919;SDS011;29578;51.946;5.874;2023-09-18T04:13:15;2.33;;;1.60;;
43919;SDS011;29578;51.946;5.874;2023-09-18T04:15:41;2.15;;;1.67;;
43919;SDS011;29578;51.946;5.874;2023-09-18T04:18:07;2.08;;;1.70;;
43919;SDS011;29578;51.946;5.874;2023-09-18T04:20:33;2.55;;;2.00;;
43919;SDS011;29578;51.946;5.874;2023-09-18T04:25:47;3.35;;;2.30;;
43919;SDS011;29578;51.946;5.874;2023-09-18T04:28:15;3.00;;;2.13;;
43919;SDS011;29578;51.946;5.874;2023-09-18T04:30:42;2.65;;;1.75;;
43919;SDS011;29578;51.946;5.874;2023-09-18T04:33:08;2.38;;;1.80;;
43919;SDS011;29578;51.946;5.874;2023-09-18T04:35:34;1.90;;;1.70;;
43919;SDS011;29578;51.946;5.874;2023-09-18T04:38:00;2.42;;;1.70;;
43919;SDS011;29578;51.946;5.874;2023-09-18T04:40:26;2.13;;;1.70;;
43919;SDS011;29578;51.946;5.874;2023-09-18T04:42:57;2.30;;;1.52;;
43919;SDS011;29578;51.946;5.874;2023-09-18T04:45:23;2.08;;;1.45;;
43919;SDS011;29578;51.946;5.874;2023-09-18T04:47:51;3.13;;;1.85;;
43919;SDS011;29578;51.946;5.874;2023-09-18T04:50:17;2.40;;;1.65;;
43919;SDS011;29578;51.946;5.874;2023-09-18T04:52:43;2.95;;;1.77;;
43919;SDS011;29578;51.946;5.874;2023-09-18T04:55:09;3.25;;;2.10;;
43919;SDS011;29578;51.946;5.874;2023-09-18T04:57:35;3.17;;;1.83;;
43919;SDS011;29578;51.946;5.874;2023-09-18T05:00:01;3.85;;;1.92;;
43919;SDS011;29578;51.946;5.874;2023-09-18T05:02:28;3.15;;;2.10;;
43919;SDS011;29578;51.946;5.874;2023-09-18T05:04:55;3.63;;;2.25;;
43919;SDS011;29578;51.946;5.874;2023-09-18T05:07:21;4.32;;;2.03;;
43919;SDS011;29578;51.946;5.874;2023-09-18T05:09:47;5.28;;;2.10;;
43919;SDS011;29578;51.946;5.874;2023-09-18T05:12:13;3.15;;;1.95;;
43919;SDS011;29578;51.946;5.874;2023-09-18T05:14:41;2.53;;;1.77;;
43919;SDS011;29578;51.946;5.874;2023-09-18T05:17:10;2.80;;;1.90;;
43919;SDS011;29578;51.946;5.874;2023-09-18T05:19:39;4.05;;;1.88;;
43919;SDS011;29578;51.946;5.874;2023-09-18T05:22:06;2.75;;;1.80;;
43919;SDS011;29578;51.946;5.874;2023-09-18T05:24:33;2.22;;;1.67;;
43919;SDS011;29578;51.946;5.874;2023-09-18T05:26:59;2.60;;;1.70;;
43919;SDS011;29578;51.946;5.874;2023-09-18T05:29:24;1.50;;;1.35;;
43919;SDS011;29578;51.946;5.874;2023-09-18T05:31:50;2.85;;;1.60;;
43919;SDS011;29578;51.946;5.874;2023-09-18T05:34:16;1.45;;;1.35;;
43919;SDS011;29578;51.946;5.874;2023-09-18T05:36:41;2.58;;;1.60;;
43919;SDS011;29578;51.946;5.874;2023-09-18T05:39:07;2.05;;;1.52;;
43919;SDS011;29578;51.946;5.874;2023-09-18T05:41:36;1.92;;;1.52;;
43919;SDS011;29578;51.946;5.874;2023-09-18T05:44:02;2.10;;;1.60;;
43919;SDS011;29578;51.946;5.874;2023-09-18T05:46:30;1.45;;;1.35;;
43919;SDS011;29578;51.946;5.874;2023-09-18T05:48:56;1.40;;;1.30;;
43919;SDS011;29578;51.946;5.874;2023-09-18T05:51:23;2.10;;;1.40;;
43919;SDS011;29578;51.946;5.874;2023-09-18T05:53:49;2.42;;;1.50;;
43919;SDS011;29578;51.946;5.874;2023-09-18T05:56:14;2.15;;;1.38;;
43919;SDS011;29578;51.946;5.874;2023-09-18T05:58:42;1.30;;;1.20;;
43919;SDS011;29578;51.946;5.874;2023-09-18T06:01:08;1.95;;;1.50;;
43919;SDS011;29578;51.946;5.874;2023-09-18T06:03:34;2.95;;;1.83;;
43919;SDS011;29578;51.946;5.874;2023-09-18T06:06:04;3.85;;;1.73;;
43919;SDS011;29578;51.946;5.874;2023-09-18T06:08:30;3.28;;;1.98;;
43919;SDS011;29578;51.946;5.874;2023-09-18T06:10:57;2.78;;;1.73;;
43919;SDS011;29578;51.946;5.874;2023-09-18T06:13:24;2.33;;;1.80;;
43919;SDS011;29578;51.946;5.874;2023-09-18T06:15:51;1.80;;;1.60;;
43919;SDS011;29578;51.946;5.874;2023-09-18T06:18:19;2.15;;;1.80;;
43919;SDS011;29578;51.946;5.874;2023-09-18T06:20:56;2.08;;;1.67;;
43919;SDS011;29578;51.946;5.874;2023-09-18T06:23:21;2.20;;;1.77;;
43919;SDS011;29578;51.946;5.874;2023-09-18T06:26:07;2.53;;;1.70;;
43919;SDS011;29578;51.946;5.874;2023-09-18T06:32:13;1.77;;;1.50;;
43919;SDS011;29578;51.946;5.874;2023-09-18T06:34:50;2.88;;;1.60;;
43919;SDS011;29578;51.946;5.874;2023-09-18T06:37:21;2.33;;;1.60;;
43919;SDS011;29578;51.946;5.874;2023-09-18T06:39:58;2.00;;;1.48;;
43919;SDS011;29578;51.946;5.874;2023-09-18T06:42:36;1.60;;;1.35;;
43919;SDS011;29578;51.946;5.874;2023-09-18T06:45:03;3.40;;;1.60;;
43919;SDS011;29578;51.946;5.874;2023-09-18T06:47:41;5.20;;;1.40;;
43919;SDS011;29578;51.946;5.874;2023-09-18T06:50:07;2.22;;;1.52;;
43919;SDS011;29578;51.946;5.874;2023-09-18T06:52:34;2.25;;;1.50;;
43919;SDS011;29578;51.946;5.874;2023-09-18T06:55:08;2.38;;;1.60;;
43919;SDS011;29578;51.946;5.874;2023-09-18T06:57:37;3.50;;;1.70;;
43919;SDS011;29578;51.946;5.874;2023-09-18T07:03:08;3.08;;;1.50;;
43919;SDS011;29578;51.946;5.874;2023-09-18T07:05:34;2.42;;;1.48;;
43919;SDS011;29578;51.946;5.874;2023-09-18T07:08:00;2.45;;;1.50;;
43919;SDS011;29578;51.946;5.874;2023-09-18T07:10:26;2.33;;;1.50;;
43919;SDS011;29578;51.946;5.874;2023-09-18T07:12:51;2.08;;;1.50;;
43919;SDS011;29578;51.946;5.874;2023-09-18T07:18:56;1.67;;;1.17;;
43919;SDS011;29578;51.946;5.874;2023-09-18T07:21:37;1.65;;;1.20;;
43919;SDS011;29578;51.946;5.874;2023-09-18T07:24:08;2.50;;;1.40;;
43919;SDS011;29578;51.946;5.874;2023-09-18T07:26:45;2.22;;;1.30;;
43919;SDS011;29578;51.946;5.874;2023-09-18T07:29:12;1.33;;;1.20;;
43919;SDS011;29578;51.946;5.874;2023-09-18T07:31:40;1.20;;;1.10;;
43919;SDS011;29578;51.946;5.874;2023-09-18T07:34:07;2.00;;;1.30;;
43919;SDS011;29578;51.946;5.874;2023-09-18T07:36:32;1.40;;;1.02;;
43919;SDS011;29578;51.946;5.874;2023-09-18T07:38:58;1.17;;;1.02;;
43919;SDS011;29578;51.946;5.874;2023-09-18T07:41:24;2.40;;;1.15;;
43919;SDS011;29578;51.946;5.874;2023-09-18T07:43:50;1.42;;;1.10;;
43919;SDS011;29578;51.946;5.874;2023-09-18T07:46:16;2.28;;;1.17;;
43919;SDS011;29578;51.946;5.874;2023-09-18T07:48:42;1.17;;;1.00;;
43919;SDS011;29578;51.946;5.874;2023-09-18T07:51:11;1.10;;;1.00;;
43919;SDS011;29578;51.946;5.874;2023-09-18T07:53:37;0.85;;;0.85;;
43919;SDS011;29578;51.946;5.874;2023-09-18T07:56:03;1.00;;;0.80;;
43919;SDS011;29578;51.946;5.874;2023-09-18T07:58:30;1.00;;;0.90;;
43919;SDS011;29578;51.946;5.874;2023-09-18T08:00:59;1.00;;;0.82;;
43919;SDS011;29578;51.946;5.874;2023-09-18T08:03:25;1.10;;;1.00;;
43919;SDS011;29578;51.946;5.874;2023-09-18T08:05:52;1.02;;;0.93;;
43919;SDS011;29578;51.946;5.874;2023-09-18T08:08:19;2.15;;;1.10;;
43919;SDS011;29578;51.946;5.874;2023-09-18T10:46:45;2.13;;;1.20;;
43919;SDS011;29578;51.946;5.874;2023-09-18T10:50:11;1.10;;;1.00;;
43919;SDS011;29578;51.946;5.874;2023-09-18T13:13:57;1.73;;;1.40;;
43919;SDS011;29578;51.946;5.874;2023-09-18T13:38:46;1.48;;;1.30;;
43919;SDS011;29578;51.946;5.874;2023-09-18T13:48:54;2.67;;;1.27;;
43919;SDS011;29578;51.946;5.874;2023-09-18T14:10:25;1.85;;;1.23;;
43919;SDS011;29578;51.946;5.874;2023-09-18T14:16:07;1.42;;;1.20;;
43919;SDS011;29578;51.946;5.874;2023-09-18T14:52:11;1.77;;;1.13;;
43919;SDS011;29578;51.946;5.874;2023-09-18T15:26:57;1.52;;;1.10;;
43919;SDS011;29578;51.946;5.874;2023-09-18T15:29:38;1.42;;;0.90;;
43919;SDS011;29578;51.946;5.874;2023-09-18T15:32:17;1.00;;;0.90;;
43919;SDS011;29578;51.946;5.874;2023-09-18T17:28:55;0.75;;;0.50;;
43919;SDS011;29578;51.946;5.874;2023-09-18T17:31:25;0.60;;;0.60;;
43919;SDS011;29578;51.946;5.874;2023-09-18T17:33:55;0.73;;;0.57;;
43919;SDS011;29578;51.946;5.874;2023-09-18T17:37:24;0.60;;;0.60;;
43919;SDS011;29578;51.946;5.874;2023-09-18T17:39:50;1.08;;;0.70;;
43919;SDS011;29578;51.946;5.874;2023-09-18T17:42:16;1.13;;;0.90;;
43919;SDS011;29578;51.946;5.874;2023-09-18T22:34:49;3.47;;;0.77;;
43919;SDS011;29578;51.946;5.874;2023-09-18T22:55:48;1.65;;;0.70;;
43919;SDS011;29578;51.946;5.874;2023-09-18T22:58:26;1.30;;;0.75;;
43919;SDS011;29578;51.946;5.874;2023-09-18T23:00:57;1.83;;;0.70;;
43919;SDS011;29578;51.946;5.874;2023-09-18T23:03:27;2.47;;;0.60;;
43919;SDS011;29578;51.946;5.874;2023-09-18T23:08:46;1.30;;;0.70;;
43919;SDS011;29578;51.946;5.874;2023-09-18T23:14:05;2.58;;;0.68;;
43919;SDS011;29578;51.946;5.874;2023-09-18T23:19:45;1.13;;;0.65;;
43919;SDS011;29578;51.946;5.874;2023-09-18T23:25:54;0.50;;;0.50;;
43919;SDS011;29578;51.946;5.874;2023-09-18T23:28:49;0.80;;;0.40;;
43919;SDS011;29578;51.946;5.874;2023-09-18T23:31:38;1.98;;;0.50;;
43919;SDS011;29578;51.946;5.874;2023-09-18T23:34:07;0.93;;;0.38;;
43919;SDS011;29578;51.946;5.874;2023-09-18T23:36:40;0.68;;;0.40;;
43919;SDS011;29578;51.946;5.874;2023-09-18T23:39:08;1.00;;;0.30;;
43919;SDS011;29578;51.946;5.874;2023-09-18T23:41:39;0.38;;;0.30;;
43919;SDS011;29578;51.946;5.874;2023-09-18T23:46:58;0.20;;;0.20;;
43919;SDS011;29578;51.946;5.874;2023-09-18T23:49:24;0.95;;;0.45;;
43919;SDS011;29578;51.946;5.874;2023-09-18T23:52:10;0.40;;;0.40;;
43919;SDS011;29578;51.946;5.874;2023-09-18T23:58:14;0.60;;;0.40;;
